createdAt,value
2024-01-05T00:02:19.000Z,1.33
2024-01-05T00:04:46.615Z,1.40
2024-01-05T00:07:13.995Z,1.15
2024-01-05T00:09:41.495Z,1.15
2024-01-05T00:12:08.969Z,1.25
2024-01-05T00:14:38.808Z,1.27
2024-01-05T00:17:06.376Z,1.20
2024-01-05T00:19:33.944Z,1.58
2024-01-05T00:22:01.502Z,0.98
2024-01-05T00:24:28.935Z,0.75
2024-01-05T00:26:56.372Z,1.30
2024-01-05T00:29:23.769Z,0.60
2024-01-05T00:31:51.070Z,1.20
2024-01-05T00:34:18.525Z,1.65
2024-01-05T00:36:46.140Z,0.95
2024-01-05T00:39:13.896Z,0.95
2024-01-05T00:41:41.213Z,0.95
2024-01-05T00:44:08.445Z,1.02
2024-01-05T00:46:38.968Z,1.17
2024-01-05T00:49:07.209Z,0.60
2024-01-05T00:51:34.678Z,0.82
2024-01-05T00:54:02.133Z,0.90
2024-01-05T00:56:29.647Z,0.70
2024-01-05T00:58:57.445Z,0.77
2024-01-05T01:01:24.770Z,1.33
2024-01-05T01:03:52.167Z,0.82
2024-01-05T01:06:19.704Z,1.08
2024-01-05T01:08:47.173Z,0.85
2024-01-05T01:11:15.450Z,0.82
2024-01-05T01:13:43.364Z,0.75
2024-01-05T01:16:11.012Z,0.88
2024-01-05T01:18:38.407Z,1.40
2024-01-05T01:21:05.992Z,0.70
2024-01-05T01:23:33.404Z,1.00
2024-01-05T01:26:00.644Z,0.57
2024-01-05T01:28:29.103Z,0.40
2024-01-05T01:30:56.660Z,0.90
2024-01-05T01:33:24.150Z,0.60
2024-01-05T01:35:51.842Z,1.50
2024-01-05T01:38:20.462Z,0.70
2024-01-05T01:40:48.181Z,0.70
2024-01-05T01:43:25.917Z,0.60
2024-01-05T01:45:58.041Z,0.88
2024-01-05T01:48:26.022Z,1.05
2024-01-05T01:50:54.174Z,0.90
2024-01-05T01:53:22.729Z,0.85
2024-01-05T01:55:50.577Z,0.63
2024-01-05T01:58:18.598Z,0.85
2024-01-05T02:00:46.833Z,0.75
2024-01-05T02:03:15.639Z,0.30
2024-01-05T02:05:44.575Z,1.63
2024-01-05T02:08:12.993Z,1.85
2024-01-05T02:10:42.080Z,0.38
2024-01-05T02:13:09.658Z,0.77
2024-01-05T02:15:37.026Z,0.80
2024-01-05T02:18:12.299Z,0.80
2024-01-05T02:20:39.771Z,0.52
2024-01-05T02:23:13.746Z,0.55
2024-01-05T02:25:41.333Z,1.23
2024-01-05T02:28:08.676Z,0.73
2024-01-05T02:30:36.186Z,0.70
2024-01-05T02:33:03.648Z,0.73
2024-01-05T02:35:30.943Z,0.82
2024-01-05T02:37:58.408Z,0.70
2024-01-05T02:40:25.774Z,0.55
2024-01-05T02:42:53.104Z,0.60
2024-01-05T02:45:22.205Z,0.70
2024-01-05T02:47:50.417Z,0.40
2024-01-05T02:50:18.243Z,0.60
2024-01-05T02:52:45.837Z,1.08
2024-01-05T02:55:13.513Z,0.50
2024-01-05T02:57:42.236Z,0.60
2024-01-05T03:00:10.004Z,0.70
2024-01-05T03:02:37.604Z,0.82
2024-01-05T03:05:06.515Z,1.05
2024-01-05T03:07:33.915Z,0.63
2024-01-05T03:10:01.281Z,0.45
2024-01-05T03:12:28.756Z,0.63
2024-01-05T03:14:56.130Z,0.77
2024-01-05T03:17:23.545Z,0.60
2024-01-05T03:19:51.023Z,0.70
2024-01-05T03:22:18.339Z,0.77
2024-01-05T03:24:45.628Z,0.95
2024-01-05T03:27:16.366Z,0.60
2024-01-05T03:29:43.847Z,1.05
2024-01-05T03:32:11.312Z,0.35
2024-01-05T03:34:39.233Z,0.35
2024-01-05T03:37:06.602Z,0.20
2024-01-05T03:39:34.098Z,0.43
2024-01-05T03:42:01.600Z,0.40
2024-01-05T03:44:28.902Z,0.20
2024-01-05T03:46:56.179Z,0.30
2024-01-05T03:49:23.601Z,0.30
2024-01-05T03:51:51.018Z,0.15
2024-01-05T03:54:18.425Z,0.50
2024-01-05T03:56:49.564Z,0.40
2024-01-05T03:59:17.857Z,0.75
2024-01-05T04:01:48.848Z,0.30
2024-01-05T04:04:16.859Z,0.20
2024-01-05T04:06:45.596Z,0.77
2024-01-05T04:09:13.486Z,0.28
2024-01-05T04:11:41.402Z,0.38
2024-01-05T04:14:09.129Z,0.20
2024-01-05T04:16:36.557Z,0.43
2024-01-05T04:19:04.479Z,0.40
2024-01-05T04:21:32.507Z,0.57
2024-01-05T04:23:59.942Z,0.20
2024-01-05T04:26:27.544Z,0.20
2024-01-05T04:28:55.035Z,0.25
2024-01-05T04:31:22.464Z,0.30
2024-01-05T04:33:50.161Z,0.25
2024-01-05T04:36:18.923Z,0.15
2024-01-05T04:38:46.355Z,0.17
2024-01-05T04:41:14.393Z,0.52
2024-01-05T04:43:41.829Z,0.30
2024-01-05T04:46:09.506Z,0.20
2024-01-05T04:48:37.143Z,0.30
2024-01-05T04:51:05.055Z,0.15
2024-01-05T04:53:32.383Z,0.30
2024-01-05T04:55:59.927Z,0.20
2024-01-05T04:58:27.387Z,0.13
2024-01-05T05:00:55.219Z,0.10
2024-01-05T05:03:22.996Z,0.10
2024-01-05T05:05:50.537Z,0.20
2024-01-05T05:08:17.934Z,0.22
2024-01-05T05:10:45.242Z,0.20
2024-01-05T05:13:12.766Z,0.20
2024-01-05T05:15:40.215Z,0.20
2024-01-05T05:18:08.140Z,0.20
2024-01-05T05:20:35.654Z,0.40
2024-01-05T05:23:03.030Z,0.20
2024-01-05T05:25:30.510Z,0.30
2024-01-05T05:27:57.828Z,0.30
2024-01-05T05:30:25.908Z,0.20
2024-01-05T05:32:53.279Z,0.13
2024-01-05T05:35:20.891Z,0.50
2024-01-05T05:37:48.293Z,0.40
2024-01-05T05:40:15.724Z,0.20
2024-01-05T05:42:43.183Z,0.25
2024-01-05T05:45:11.213Z,0.40
2024-01-05T05:47:38.662Z,0.10
2024-01-05T05:50:07.381Z,0.20
2024-01-05T05:52:36.261Z,0.20
2024-01-05T05:55:04.243Z,0.40
2024-01-05T05:57:32.888Z,0.35
2024-01-05T06:00:00.814Z,0.10
2024-01-05T06:02:28.620Z,0.20
2024-01-05T06:04:56.164Z,0.20
2024-01-05T06:07:24.910Z,0.30
2024-01-05T06:09:52.360Z,0.10
2024-01-05T06:12:19.818Z,0.20
2024-01-05T06:14:47.345Z,0.10
2024-01-05T06:17:14.629Z,0.30
2024-01-05T06:19:42.032Z,0.40
2024-01-05T06:22:09.457Z,0.50
2024-01-05T06:24:36.886Z,0.32
2024-01-05T06:27:04.541Z,0.25
2024-01-05T06:29:31.986Z,0.20
2024-01-05T06:31:59.383Z,0.32
2024-01-05T06:34:26.715Z,0.20
2024-01-05T06:36:54.020Z,0.32
2024-01-05T06:39:21.472Z,0.43
2024-01-05T06:41:48.879Z,0.55
2024-01-05T06:44:16.316Z,0.47
2024-01-05T06:46:43.717Z,0.30
2024-01-05T06:49:11.333Z,0.47
2024-01-05T06:51:39.376Z,0.20
2024-01-05T06:54:07.351Z,0.40
2024-01-05T06:56:35.476Z,0.20
2024-01-05T06:59:04.237Z,0.22
2024-01-05T07:01:35.076Z,0.22
2024-01-05T07:04:02.992Z,0.40
2024-01-05T07:06:30.638Z,0.60
2024-01-05T07:08:58.076Z,0.50
2024-01-05T07:11:26.093Z,0.82
2024-01-05T07:13:53.616Z,0.35
2024-01-05T07:16:21.418Z,0.32
2024-01-05T07:18:49.740Z,0.90
2024-01-05T07:21:17.956Z,0.47
2024-01-05T07:23:45.523Z,0.52
2024-01-05T07:26:13.016Z,0.30
2024-01-05T07:28:40.370Z,0.75
2024-01-05T07:31:08.014Z,0.55
2024-01-05T07:33:35.774Z,0.65
2024-01-05T07:36:07.605Z,0.20
2024-01-05T07:38:36.204Z,0.20
2024-01-05T07:41:04.002Z,0.20
2024-01-05T07:43:34.383Z,0.40
2024-01-05T07:46:05.645Z,0.40
2024-01-05T07:48:33.258Z,0.20
2024-01-05T07:51:04.368Z,0.20
2024-01-05T07:53:31.745Z,0.30
2024-01-05T07:56:04.155Z,0.20
2024-01-05T07:58:31.573Z,0.40
2024-01-05T08:00:59.253Z,0.30
2024-01-05T08:03:26.830Z,0.25
2024-01-05T08:05:54.185Z,0.20
2024-01-05T08:08:21.579Z,0.13
2024-01-05T08:10:49.019Z,0.52
2024-01-05T08:13:16.526Z,0.40
2024-01-05T08:15:43.911Z,0.20
2024-01-05T08:18:12.422Z,0.52
2024-01-05T08:20:39.885Z,0.50
2024-01-05T08:23:07.287Z,0.40
2024-01-05T08:25:34.836Z,0.30
2024-01-05T08:28:03.400Z,0.32
2024-01-05T08:30:32.090Z,0.32
2024-01-05T08:32:59.907Z,0.50
2024-01-05T08:35:27.819Z,0.60
2024-01-05T08:37:55.132Z,0.77
2024-01-05T08:40:27.058Z,0.60
2024-01-05T08:42:55.758Z,0.70
2024-01-05T08:45:24.251Z,0.60
2024-01-05T08:47:54.061Z,0.88
2024-01-05T08:50:21.656Z,0.50
2024-01-05T08:52:51.207Z,0.50
2024-01-05T08:55:21.544Z,0.40
2024-01-05T08:57:50.051Z,0.50
2024-01-05T09:00:19.761Z,0.60
2024-01-05T09:02:47.414Z,0.90
2024-01-05T09:05:14.931Z,0.50
2024-01-05T09:07:42.356Z,0.40
2024-01-05T09:10:09.938Z,0.65
2024-01-05T09:12:38.929Z,0.50
2024-01-05T09:15:07.634Z,0.55
2024-01-05T09:17:36.104Z,0.30
2024-01-05T09:20:04.872Z,0.52
2024-01-05T09:22:32.432Z,0.85
2024-01-05T09:24:59.797Z,0.50
2024-01-05T09:27:27.494Z,0.40
2024-01-05T09:29:54.877Z,0.20
2024-01-05T09:32:23.575Z,0.50
2024-01-05T09:34:51.124Z,0.40
2024-01-05T09:37:18.501Z,0.60
2024-01-05T09:39:46.381Z,0.43
2024-01-05T09:42:14.193Z,0.52
2024-01-05T09:44:42.297Z,0.30
2024-01-05T09:47:10.041Z,0.40
2024-01-05T09:49:37.895Z,0.52
2024-01-05T09:52:05.595Z,0.43
2024-01-05T09:54:33.438Z,0.40
2024-01-05T09:57:03.157Z,0.30
2024-01-05T09:59:31.385Z,0.60
2024-01-05T10:02:01.337Z,0.40
2024-01-05T10:04:29.054Z,0.77
2024-01-05T10:07:00.986Z,0.45
2024-01-05T10:09:30.935Z,0.57
2024-01-05T10:11:59.860Z,0.30
2024-01-05T10:14:27.537Z,0.50
2024-01-05T10:17:08.954Z,0.50
2024-01-05T10:19:36.490Z,0.73
2024-01-05T10:22:10.714Z,0.40
2024-01-05T10:24:38.148Z,0.60
2024-01-05T10:27:06.674Z,0.70
2024-01-05T10:29:34.814Z,0.88
2024-01-05T10:32:12.625Z,0.70
2024-01-05T10:34:44.425Z,0.90
2024-01-05T10:37:12.605Z,0.60
2024-01-05T10:39:40.579Z,0.50
2024-01-05T10:42:28.514Z,0.68
2024-01-05T10:44:57.282Z,0.45
2024-01-05T10:47:28.728Z,0.40
2024-01-05T10:49:57.910Z,0.63
2024-01-05T10:52:32.288Z,0.55
2024-01-05T10:55:04.251Z,0.35
2024-01-05T10:57:32.421Z,0.85
2024-01-05T11:00:00.067Z,0.52
2024-01-05T11:02:36.946Z,0.70
2024-01-05T11:05:08.328Z,0.80
2024-01-05T11:07:36.395Z,0.73
2024-01-05T11:10:03.744Z,0.93
2024-01-05T11:12:55.756Z,1.00
2024-01-05T11:15:23.912Z,0.68
2024-01-05T11:18:10.169Z,1.02
2024-01-05T11:20:40.938Z,0.80
2024-01-05T11:23:10.433Z,1.10
2024-01-05T11:25:37.928Z,0.93
2024-01-05T11:28:08.282Z,1.00
2024-01-05T11:30:42.825Z,0.75
2024-01-05T11:33:39.035Z,1.05
2024-01-05T11:36:07.265Z,1.10
2024-01-05T11:38:35.085Z,0.88
2024-01-05T11:41:17.051Z,0.85
2024-01-05T11:43:44.457Z,1.25
2024-01-05T11:46:11.929Z,1.58
2024-01-05T11:48:39.623Z,1.17
2024-01-05T11:51:11.098Z,2.30
2024-01-05T11:53:39.257Z,1.02
2024-01-05T11:56:12.400Z,1.63
2024-01-05T11:58:45.319Z,1.00
2024-01-05T12:01:13.841Z,1.48
2024-01-05T12:03:42.412Z,1.63
2024-01-05T12:06:11.327Z,1.52
2024-01-05T12:08:39.638Z,1.27
2024-01-05T12:11:09.298Z,1.20
2024-01-05T12:13:38.104Z,1.67
2024-01-05T12:16:06.893Z,1.40
2024-01-05T12:18:38.593Z,1.55
2024-01-05T12:21:08.568Z,1.10
2024-01-05T12:23:36.784Z,1.67
2024-01-05T12:26:04.622Z,0.90
2024-01-05T12:28:33.074Z,1.30
2024-01-05T12:31:00.876Z,1.27
2024-01-05T12:33:29.232Z,0.88
2024-01-05T12:35:56.969Z,1.20
2024-01-05T12:38:29.811Z,1.35
2024-01-05T12:41:09.378Z,1.52
2024-01-05T12:43:44.566Z,1.33
2024-01-05T12:46:12.656Z,1.10
2024-01-05T12:48:41.375Z,0.95
2024-01-05T12:51:16.746Z,1.50
2024-01-05T12:53:46.019Z,1.58
2024-01-05T12:56:21.369Z,1.90
2024-01-05T12:58:49.266Z,0.90
2024-01-05T13:01:24.510Z,1.10
2024-01-05T13:03:53.283Z,1.10
2024-01-05T13:06:22.101Z,1.35
2024-01-05T13:08:49.775Z,1.05
2024-01-05T13:11:23.392Z,1.30
2024-01-05T13:16:18.513Z,0.85
2024-01-05T13:18:45.913Z,1.30
2024-01-05T13:21:13.674Z,1.08
2024-01-05T13:23:43.843Z,1.10
2024-01-05T13:26:11.305Z,1.50
2024-01-05T13:28:38.844Z,2.25
2024-01-05T13:31:06.715Z,1.33
2024-01-05T13:33:35.063Z,1.55
2024-01-05T13:36:02.587Z,1.85
2024-01-05T13:38:30.073Z,1.73
2024-01-05T13:40:57.709Z,1.25
2024-01-05T13:43:26.467Z,2.15
2024-01-05T13:45:57.290Z,2.15
2024-01-05T13:48:24.840Z,1.42
2024-01-05T13:50:52.479Z,1.58
2024-01-05T13:53:19.825Z,1.77
2024-01-05T13:55:47.151Z,1.60
2024-01-05T13:58:16.285Z,1.48
2024-01-05T14:00:43.746Z,1.70
2024-01-05T14:03:11.251Z,3.08
2024-01-05T14:05:38.666Z,1.23
2024-01-05T14:08:06.464Z,1.20
2024-01-05T14:10:34.073Z,1.00
2024-01-05T14:13:02.450Z,1.73
2024-01-05T14:15:29.920Z,1.10
2024-01-05T14:17:57.509Z,1.48
2024-01-05T14:20:24.898Z,1.58
2024-01-05T14:22:52.315Z,1.30
2024-01-05T14:25:19.712Z,1.23
2024-01-05T14:27:47.069Z,1.48
2024-01-05T14:30:14.719Z,1.20
2024-01-05T14:32:42.597Z,1.92
2024-01-05T14:35:10.064Z,1.52
2024-01-05T14:37:39.285Z,1.50
2024-01-05T14:40:09.858Z,0.90
2024-01-05T14:42:37.322Z,1.40
2024-01-05T14:45:04.887Z,1.58
2024-01-05T14:47:32.271Z,1.20
2024-01-05T14:49:59.744Z,1.00
2024-01-05T14:52:27.265Z,1.15
2024-01-05T14:54:57.829Z,2.13
2024-01-05T14:57:25.883Z,1.13
2024-01-05T14:59:54.706Z,1.00
2024-01-05T15:02:22.100Z,1.25
2024-01-05T15:04:49.651Z,1.05
2024-01-05T15:07:17.091Z,1.55
2024-01-05T15:09:46.104Z,1.67
2024-01-05T15:12:14.737Z,1.67
2024-01-05T15:14:43.074Z,1.40
2024-01-05T15:17:11.660Z,1.30
2024-01-05T15:19:41.030Z,1.30
2024-01-05T15:22:09.068Z,1.10
2024-01-05T15:24:40.069Z,1.55
2024-01-05T15:27:08.545Z,1.23
2024-01-05T15:29:41.779Z,1.30
2024-01-05T15:32:09.566Z,1.10
2024-01-05T15:34:45.027Z,0.98
2024-01-05T15:37:13.178Z,1.40
2024-01-05T15:39:41.165Z,1.25
2024-01-05T15:42:08.663Z,1.13
2024-01-05T15:44:36.448Z,1.75
2024-01-05T15:47:03.797Z,1.40
2024-01-05T15:49:31.537Z,1.20
2024-01-05T15:51:58.959Z,0.90
2024-01-05T15:54:27.371Z,1.20
2024-01-05T15:56:57.876Z,1.20
2024-01-05T15:59:30.274Z,1.63
2024-01-05T16:01:58.848Z,1.73
2024-01-05T16:04:26.632Z,1.50
2024-01-05T16:06:54.865Z,1.98
2024-01-05T16:09:23.106Z,2.47
2024-01-05T16:11:50.789Z,1.50
2024-01-05T16:14:19.042Z,1.95
2024-01-05T16:16:46.544Z,1.67
2024-01-05T16:19:14.204Z,1.23
2024-01-05T16:21:42.793Z,1.65
2024-01-05T16:24:10.764Z,1.67
2024-01-05T16:26:38.459Z,2.17
2024-01-05T16:29:05.795Z,2.50
2024-01-05T16:31:33.576Z,2.28
2024-01-05T16:34:01.466Z,1.55
2024-01-05T16:36:28.965Z,2.00
2024-01-05T16:38:56.413Z,1.50
2024-01-05T16:41:25.310Z,1.90
2024-01-05T16:43:53.216Z,1.58
2024-01-05T16:46:21.759Z,1.65
2024-01-05T16:48:53.664Z,1.70
2024-01-05T16:51:26.190Z,1.60
2024-01-05T16:53:55.991Z,1.77
2024-01-05T16:56:28.312Z,1.52
2024-01-05T16:58:57.114Z,1.90
2024-01-05T17:01:25.544Z,2.28
2024-01-05T17:03:57.857Z,1.30
2024-01-05T17:06:26.837Z,1.83
2024-01-05T17:08:54.397Z,1.88
2024-01-05T17:11:26.613Z,2.75
2024-01-05T17:13:54.648Z,1.40
2024-01-05T17:16:21.961Z,1.33
2024-01-05T17:18:49.689Z,1.23
2024-01-05T17:21:17.189Z,1.30
2024-01-05T17:23:44.560Z,1.15
2024-01-05T17:26:11.911Z,1.35
2024-01-05T17:28:39.460Z,1.30
2024-01-05T17:31:06.928Z,1.40
2024-01-05T17:33:34.466Z,1.55
2024-01-05T17:36:01.921Z,1.40
2024-01-05T17:38:29.294Z,0.93
2024-01-05T17:40:58.029Z,1.60
2024-01-05T17:43:26.427Z,1.13
2024-01-05T17:45:54.864Z,1.15
2024-01-05T17:48:22.414Z,1.13
2024-01-05T17:50:49.863Z,1.17
2024-01-05T17:53:17.276Z,1.13
2024-01-05T17:55:44.692Z,1.75
2024-01-05T17:58:33.241Z,1.33
2024-01-05T18:01:00.851Z,1.55
2024-01-05T18:03:28.519Z,1.15
2024-01-05T18:05:56.111Z,1.40
2024-01-05T18:08:24.165Z,2.20
2024-01-05T18:10:56.082Z,2.20
2024-01-05T18:13:24.288Z,1.55
2024-01-05T18:15:51.823Z,1.42
2024-01-05T18:18:19.395Z,1.73
2024-01-05T18:20:47.068Z,1.40
2024-01-05T18:23:17.664Z,2.47
2024-01-05T18:25:45.506Z,1.70
2024-01-05T18:28:13.024Z,1.50
2024-01-05T18:30:40.599Z,1.65
2024-01-05T18:33:08.680Z,2.28
2024-01-05T18:35:36.187Z,2.08
2024-01-05T18:38:03.857Z,2.08
2024-01-05T18:40:31.196Z,2.42
2024-01-05T18:43:00.049Z,3.38
2024-01-05T18:45:27.455Z,2.97
2024-01-05T18:47:54.996Z,3.10
2024-01-05T18:50:24.891Z,2.72
2024-01-05T18:52:52.306Z,3.35
2024-01-05T18:55:19.927Z,2.72
2024-01-05T18:57:47.380Z,3.92
2024-01-05T19:00:15.077Z,3.05
2024-01-05T19:02:42.547Z,2.75
2024-01-05T19:05:10.032Z,3.47
2024-01-05T19:07:37.826Z,3.75
2024-01-05T19:10:05.485Z,4.10
2024-01-05T19:12:33.634Z,3.60
2024-01-05T19:15:01.031Z,3.13
2024-01-05T19:17:28.370Z,3.45
2024-01-05T19:19:55.874Z,3.22
2024-01-05T19:22:23.279Z,3.38
2024-01-05T19:24:51.705Z,4.20
2024-01-05T19:27:19.068Z,3.50
2024-01-05T19:29:46.704Z,4.10
2024-01-05T19:32:14.136Z,3.17
2024-01-05T19:34:42.650Z,3.83
2024-01-05T19:37:10.007Z,3.15
2024-01-05T19:39:37.431Z,3.10
2024-01-05T19:42:06.579Z,3.03
2024-01-05T19:44:34.092Z,3.28
2024-01-05T19:47:02.165Z,4.20
2024-01-05T19:49:30.162Z,3.38
2024-01-05T19:51:57.711Z,3.72
2024-01-05T19:54:25.616Z,3.03
2024-01-05T19:56:53.307Z,2.05
2024-01-05T19:59:21.276Z,2.63
2024-01-05T20:01:48.761Z,1.90
2024-01-05T20:04:17.039Z,2.20
2024-01-05T20:06:51.931Z,2.03
2024-01-05T20:09:19.511Z,2.13
2024-01-05T20:11:47.310Z,1.80
2024-01-05T20:14:14.759Z,2.40
2024-01-05T20:16:42.374Z,1.90
2024-01-05T20:19:10.060Z,2.53
2024-01-05T20:21:37.818Z,1.70
2024-01-05T20:24:05.331Z,2.63
2024-01-05T20:26:32.815Z,2.15
2024-01-05T20:29:00.944Z,2.40
2024-01-05T20:31:30.029Z,2.92
2024-01-05T20:33:57.614Z,2.47
2024-01-05T20:36:25.092Z,1.95
2024-01-05T20:38:52.532Z,2.83
2024-01-05T20:41:19.859Z,2.65
2024-01-05T20:43:47.774Z,2.88
2024-01-05T20:46:16.187Z,3.00
2024-01-05T20:48:43.616Z,2.53
2024-01-05T20:51:11.870Z,2.83
2024-01-05T20:53:39.252Z,2.50
2024-01-05T20:56:06.642Z,2.03
2024-01-05T20:58:35.047Z,2.20
2024-01-05T21:01:03.365Z,1.67
2024-01-05T21:03:31.135Z,1.55
2024-01-05T21:05:58.659Z,1.52
2024-01-05T21:08:25.954Z,1.50
2024-01-05T21:10:53.395Z,1.80
2024-01-05T21:13:21.730Z,1.73
2024-01-05T21:15:49.421Z,1.35
2024-01-05T21:18:17.245Z,1.80
2024-01-05T21:20:45.331Z,1.52
2024-01-05T21:23:14.155Z,1.60
2024-01-05T21:25:41.935Z,0.80
2024-01-05T21:28:11.650Z,0.82
2024-01-05T21:30:42.287Z,1.00
2024-01-05T21:33:09.960Z,0.95
2024-01-05T21:35:37.548Z,1.13
2024-01-05T21:38:05.233Z,16.02
2024-01-05T21:40:35.596Z,4.53
2024-01-05T21:43:03.046Z,1.00
2024-01-05T21:45:30.473Z,1.00
2024-01-05T21:47:57.852Z,1.35
2024-01-05T21:50:25.442Z,1.25
2024-01-05T21:52:52.958Z,1.65
2024-01-05T21:55:20.382Z,1.63
2024-01-05T21:57:47.819Z,1.63
2024-01-05T22:00:16.655Z,1.40
2024-01-05T22:02:46.259Z,0.90
2024-01-05T22:05:13.654Z,0.93
2024-01-05T22:07:43.349Z,1.60
2024-01-05T22:10:12.606Z,0.80
2024-01-05T22:12:40.049Z,0.82
2024-01-05T22:15:07.747Z,0.98
2024-01-05T22:17:37.495Z,1.10
2024-01-05T22:20:05.178Z,0.70
2024-01-05T22:22:32.559Z,0.90
2024-01-05T22:24:59.924Z,1.60
2024-01-05T22:27:27.360Z,0.70
2024-01-05T22:29:54.684Z,0.70
2024-01-05T22:32:22.125Z,1.20
2024-01-05T22:34:49.643Z,1.05
2024-01-05T22:37:17.384Z,1.00
2024-01-05T22:39:44.957Z,1.58
2024-01-05T22:42:14.299Z,1.05
2024-01-05T22:44:42.959Z,0.88
2024-01-05T22:47:10.379Z,1.45
2024-01-05T22:49:41.550Z,1.23
2024-01-05T22:52:09.306Z,1.20
2024-01-05T22:54:37.526Z,0.75
2024-01-05T22:57:05.913Z,0.70
2024-01-05T22:59:33.403Z,0.80
2024-01-05T23:02:02.023Z,1.58
2024-01-05T23:04:29.479Z,0.80
2024-01-05T23:06:57.951Z,1.00
2024-01-05T23:09:26.027Z,1.33
2024-01-05T23:11:54.252Z,1.13
2024-01-05T23:14:21.644Z,1.30
2024-01-05T23:16:50.859Z,1.17
2024-01-05T23:19:18.385Z,1.13
2024-01-05T23:21:45.862Z,1.00
2024-01-05T23:24:13.231Z,0.80
2024-01-05T23:26:40.644Z,1.17
2024-01-05T23:29:10.190Z,0.80
2024-01-05T23:31:41.543Z,1.10
2024-01-05T23:34:16.027Z,0.80
2024-01-05T23:36:45.918Z,0.80
2024-01-05T23:39:13.385Z,1.30
2024-01-05T23:41:40.773Z,1.08
2024-01-05T23:44:08.339Z,0.85
2024-01-05T23:46:35.658Z,0.90
2024-01-05T23:49:03.069Z,1.05
2024-01-05T23:51:30.565Z,0.82
2024-01-05T23:53:57.948Z,0.52
2024-01-05T23:56:25.250Z,1.50
2024-01-05T23:58:52.963Z,0.88
